createdAt,value
2023-01-13T00:01:31.943Z,13.55
2023-01-13T00:04:01.159Z,14.00
2023-01-13T00:06:30.353Z,12.90
2023-01-13T00:08:59.512Z,14.50
2023-01-13T00:11:29.294Z,14.75
2023-01-13T00:13:58.419Z,13.95
2023-01-13T00:16:27.694Z,16.15
2023-01-13T00:18:57.104Z,15.60
2023-01-13T00:21:26.454Z,16.15
2023-01-13T00:23:56.282Z,16.10
2023-01-13T00:26:26.949Z,15.97
2023-01-13T00:28:57.573Z,16.00
2023-01-13T00:31:27.703Z,15.95
2023-01-13T00:33:57.455Z,15.43
2023-01-13T00:36:27.141Z,15.60
2023-01-13T00:38:56.439Z,14.95
2023-01-13T00:41:26.580Z,15.30
2023-01-13T00:43:55.738Z,15.13
2023-01-13T00:46:24.932Z,15.40
2023-01-13T00:48:54.216Z,14.85
2023-01-13T00:51:24.663Z,14.90
2023-01-13T00:53:54.372Z,15.75
2023-01-13T00:56:38.955Z,15.45
2023-01-13T00:59:11.515Z,15.15
2023-01-13T01:01:41.330Z,15.20
2023-01-13T01:04:11.552Z,13.17
2023-01-13T01:06:40.885Z,16.10
2023-01-13T01:09:12.091Z,14.20
2023-01-13T01:11:41.633Z,14.55
2023-01-13T01:14:11.640Z,14.67
2023-01-13T01:16:41.610Z,15.05
2023-01-13T01:19:10.849Z,14.20
2023-01-13T01:21:40.208Z,14.80
2023-01-13T01:24:09.791Z,16.90
2023-01-13T01:26:38.955Z,15.15
2023-01-13T01:29:11.718Z,14.45
2023-01-13T01:31:41.030Z,14.45
2023-01-13T01:34:10.487Z,15.45
2023-01-13T01:36:39.834Z,15.70
2023-01-13T01:39:09.997Z,15.55
2023-01-13T01:41:39.346Z,14.97
2023-01-13T01:44:23.169Z,16.35
2023-01-13T01:46:52.431Z,15.67
2023-01-13T01:49:24.475Z,15.33
2023-01-13T01:51:55.091Z,16.55
2023-01-13T01:54:26.147Z,16.85
2023-01-13T01:56:55.673Z,15.00
2023-01-13T01:59:26.759Z,15.40
2023-01-13T02:01:58.568Z,15.50
2023-01-13T02:04:29.431Z,16.80
2023-01-13T02:06:58.811Z,17.15
2023-01-13T02:09:28.942Z,15.20
2023-01-13T02:12:31.251Z,16.15
2023-01-13T02:15:02.544Z,14.65
2023-01-13T02:17:40.060Z,15.63
2023-01-13T02:20:19.057Z,15.65
2023-01-13T02:22:58.963Z,15.55
2023-01-13T02:25:39.834Z,15.10
2023-01-13T02:28:22.034Z,15.63
2023-01-13T02:31:11.231Z,15.45
2023-01-13T02:33:49.478Z,15.70
2023-01-13T02:36:24.377Z,15.20
2023-01-13T02:38:56.724Z,15.75
2023-01-13T02:44:16.859Z,17.05
2023-01-13T02:46:54.916Z,15.10
2023-01-13T02:49:28.507Z,15.67
2023-01-13T02:52:00.774Z,15.80
2023-01-13T02:56:59.338Z,14.60
2023-01-13T02:59:30.255Z,15.17
2023-01-13T03:01:59.583Z,14.63
2023-01-13T03:04:48.430Z,15.33
2023-01-13T03:07:32.136Z,14.90
2023-01-13T03:10:05.958Z,15.05
2023-01-13T03:12:40.282Z,14.03
2023-01-13T03:15:14.822Z,15.45
2023-01-13T03:17:49.007Z,14.60
2023-01-13T03:20:22.057Z,14.95
2023-01-13T03:22:55.313Z,14.85
2023-01-13T03:25:26.850Z,14.90
2023-01-13T03:27:57.708Z,15.13
2023-01-13T03:30:28.836Z,14.75
2023-01-13T03:33:01.784Z,15.80
2023-01-13T03:35:34.379Z,14.95
2023-01-13T03:38:05.771Z,14.45
2023-01-13T03:40:36.963Z,15.05
2023-01-13T03:43:23.899Z,14.10
2023-01-13T03:45:55.888Z,15.50
2023-01-13T03:48:26.521Z,15.80
2023-01-13T03:50:57.444Z,15.47
2023-01-13T03:53:28.480Z,14.87
2023-01-13T03:55:59.569Z,15.40
2023-01-13T03:58:30.476Z,15.70
2023-01-13T04:01:03.146Z,16.35
2023-01-13T04:03:36.406Z,15.05
2023-01-13T04:06:10.507Z,15.70
2023-01-13T04:08:40.420Z,16.25
2023-01-13T04:11:11.940Z,16.20
2023-01-13T04:13:42.092Z,17.02
2023-01-13T04:16:11.783Z,15.20
2023-01-13T04:18:41.219Z,17.65
2023-01-13T04:21:10.641Z,16.45
2023-01-13T04:23:40.025Z,16.70
2023-01-13T04:26:09.859Z,18.40
2023-01-13T04:28:40.205Z,19.35
2023-01-13T04:31:09.532Z,19.70
2023-01-13T04:33:39.548Z,18.70
2023-01-13T04:36:09.767Z,19.05
2023-01-13T04:38:38.979Z,17.95
2023-01-13T04:41:08.226Z,17.75
2023-01-13T04:43:37.508Z,18.27
2023-01-13T04:46:07.677Z,18.85
2023-01-13T04:48:37.134Z,19.30
2023-01-13T04:51:06.744Z,19.40
2023-01-13T04:53:37.549Z,20.30
2023-01-13T04:56:07.628Z,19.80
2023-01-13T04:58:37.424Z,18.25
2023-01-13T05:01:09.508Z,18.90
2023-01-13T05:03:39.418Z,18.55
2023-01-13T05:06:08.728Z,18.75
2023-01-13T05:08:41.611Z,18.70
2023-01-13T05:11:31.352Z,18.90
2023-01-13T05:14:18.798Z,19.50
2023-01-13T05:17:02.810Z,18.90
2023-01-13T05:19:32.874Z,19.05
2023-01-13T05:22:21.555Z,18.57
2023-01-13T05:25:11.954Z,19.35
2023-01-13T05:27:44.204Z,21.27
2023-01-13T05:30:14.069Z,20.57
2023-01-13T05:32:59.072Z,19.25
2023-01-13T05:35:30.697Z,20.85
2023-01-13T05:38:00.048Z,20.30
2023-01-13T05:40:47.303Z,20.15
2023-01-13T05:43:32.437Z,18.80
2023-01-13T05:46:07.414Z,18.85
2023-01-13T05:48:37.823Z,19.12
2023-01-13T05:51:07.986Z,19.73
2023-01-13T05:53:40.166Z,19.00
2023-01-13T05:56:12.538Z,20.75
2023-01-13T05:58:41.685Z,20.70
2023-01-13T06:01:12.981Z,20.77
2023-01-13T06:03:42.357Z,18.25
2023-01-13T06:06:11.749Z,18.73
2023-01-13T06:08:41.010Z,18.75
2023-01-13T06:11:10.351Z,18.70
2023-01-13T06:13:39.577Z,18.85
2023-01-13T06:16:09.444Z,18.50
2023-01-13T06:18:38.897Z,18.45
2023-01-13T06:21:08.139Z,18.60
2023-01-13T06:23:38.063Z,18.95
2023-01-13T06:26:10.020Z,17.70
2023-01-13T06:28:39.248Z,18.48
2023-01-13T06:31:09.600Z,18.65
2023-01-13T06:33:41.371Z,18.90
2023-01-13T06:36:13.510Z,17.40
2023-01-13T06:38:46.955Z,17.20
2023-01-13T06:41:16.802Z,17.20
2023-01-13T06:43:47.819Z,17.15
2023-01-13T06:46:17.263Z,17.80
2023-01-13T06:48:47.800Z,18.20
2023-01-13T06:51:17.167Z,17.25
2023-01-13T06:53:46.375Z,17.60
2023-01-13T06:56:15.741Z,17.60
2023-01-13T06:58:45.123Z,17.40
2023-01-13T07:01:15.307Z,19.20
2023-01-13T07:03:44.736Z,16.60
2023-01-13T07:06:14.960Z,20.30
2023-01-13T07:08:44.216Z,21.55
2023-01-13T07:11:14.975Z,21.65
2023-01-13T07:14:02.571Z,20.87
2023-01-13T07:16:32.235Z,21.25
2023-01-13T07:19:01.710Z,20.90
2023-01-13T07:21:31.618Z,20.80
2023-01-13T07:24:01.744Z,19.50
2023-01-13T07:26:31.445Z,17.55
2023-01-13T07:29:01.247Z,20.15
2023-01-13T07:31:31.285Z,20.45
2023-01-13T07:34:00.682Z,21.75
2023-01-13T07:36:30.058Z,22.75
2023-01-13T07:39:04.101Z,24.00
2023-01-13T07:41:51.959Z,22.05
2023-01-13T07:44:21.582Z,22.80
2023-01-13T07:46:50.975Z,22.35
2023-01-13T07:49:20.209Z,21.00
2023-01-13T07:51:49.571Z,24.57
2023-01-13T07:54:19.447Z,22.65
2023-01-13T07:56:48.876Z,23.45
2023-01-13T07:59:21.511Z,22.95
2023-01-13T08:02:00.909Z,23.00
2023-01-13T08:04:30.258Z,22.85
2023-01-13T08:06:59.507Z,23.25
2023-01-13T08:09:41.425Z,23.20
2023-01-13T08:12:31.142Z,23.35
2023-01-13T08:15:00.442Z,22.03
2023-01-13T08:17:29.563Z,22.20
2023-01-13T08:19:59.084Z,24.03
2023-01-13T08:22:30.503Z,23.70
2023-01-13T08:24:59.831Z,24.10
2023-01-13T08:27:33.153Z,20.40
2023-01-13T08:30:03.063Z,21.30
2023-01-13T08:32:32.505Z,20.75
2023-01-13T08:35:03.771Z,20.20
2023-01-13T08:37:33.082Z,20.03
2023-01-13T08:40:02.344Z,20.25
2023-01-13T08:42:31.814Z,19.63
2023-01-13T08:45:01.058Z,20.50
2023-01-13T08:47:30.531Z,19.35
2023-01-13T08:50:11.923Z,19.05
2023-01-13T08:52:46.351Z,19.05
2023-01-13T08:55:19.768Z,18.87
2023-01-13T08:57:51.114Z,17.50
2023-01-13T09:00:21.088Z,17.80
2023-01-13T09:02:50.288Z,16.55
2023-01-13T09:05:19.866Z,15.65
2023-01-13T09:07:49.355Z,17.05
2023-01-13T09:10:18.654Z,15.70
2023-01-13T09:13:06.187Z,15.60
2023-01-13T09:15:36.436Z,16.05
2023-01-13T09:18:05.842Z,15.45
2023-01-13T09:20:35.285Z,17.65
2023-01-13T09:23:04.904Z,17.55
2023-01-13T09:25:36.040Z,18.85
2023-01-13T09:28:07.529Z,17.55
2023-01-13T09:30:38.168Z,17.85
2023-01-13T09:33:25.654Z,19.00
2023-01-13T09:36:00.474Z,18.70
2023-01-13T09:38:29.761Z,16.45
2023-01-13T09:40:58.998Z,17.00
2023-01-13T09:43:51.938Z,17.55
2023-01-13T09:46:40.750Z,16.37
2023-01-13T09:49:15.321Z,18.30
2023-01-13T09:51:45.564Z,17.63
2023-01-13T09:54:17.020Z,17.10
2023-01-13T09:56:46.361Z,17.67
2023-01-13T09:59:16.015Z,16.50
2023-01-13T10:01:49.295Z,18.00
2023-01-13T10:04:18.633Z,18.37
2023-01-13T10:06:49.778Z,20.10
2023-01-13T10:09:23.333Z,18.00
2023-01-13T10:12:12.979Z,19.50
2023-01-13T10:14:42.937Z,18.45
2023-01-13T10:17:18.788Z,18.30
2023-01-13T10:19:50.503Z,17.43
2023-01-13T10:22:24.517Z,18.52
2023-01-13T10:25:08.125Z,17.80
2023-01-13T10:27:38.529Z,16.33
2023-01-13T10:30:19.346Z,18.83
2023-01-13T10:32:51.150Z,18.20
2023-01-13T10:35:43.424Z,17.42
2023-01-13T10:38:16.417Z,17.53
2023-01-13T10:43:13.669Z,16.40
2023-01-13T10:45:43.529Z,16.20
2023-01-13T10:48:13.977Z,15.80
2023-01-13T10:50:43.896Z,17.87
2023-01-13T10:53:17.769Z,17.70
2023-01-13T10:55:58.970Z,18.60
2023-01-13T10:58:28.206Z,15.55
2023-01-13T11:01:02.110Z,16.20
2023-01-13T11:03:40.905Z,16.43
2023-01-13T11:06:19.135Z,16.63
2023-01-13T11:08:49.375Z,18.20
2023-01-13T11:11:38.860Z,18.07
2023-01-13T11:14:32.259Z,18.43
2023-01-13T11:17:04.743Z,19.37
2023-01-13T11:19:35.994Z,19.40
2023-01-13T11:22:08.622Z,17.20
2023-01-13T11:24:40.278Z,17.45
2023-01-13T11:27:13.587Z,17.32
2023-01-13T11:29:49.409Z,17.60
2023-01-13T11:32:20.090Z,17.00
2023-01-13T11:34:52.255Z,17.00
2023-01-13T11:39:54.768Z,16.23
2023-01-13T11:42:26.475Z,16.80
2023-01-13T11:45:07.346Z,18.23
2023-01-13T11:47:36.936Z,17.25
2023-01-13T11:50:14.386Z,16.90
2023-01-13T11:52:55.907Z,18.37
2023-01-13T11:55:29.336Z,16.95
2023-01-13T11:58:13.315Z,16.17
2023-01-13T12:00:50.803Z,17.63
2023-01-13T12:03:23.363Z,17.17
2023-01-13T12:06:02.371Z,16.97
2023-01-13T12:08:38.912Z,17.20
2023-01-13T12:11:11.846Z,17.70
2023-01-13T12:13:47.491Z,17.53
2023-01-13T12:16:22.958Z,17.17
2023-01-13T12:19:07.089Z,16.57
2023-01-13T12:21:38.488Z,15.85
2023-01-13T12:24:13.286Z,15.97
2023-01-13T12:26:44.728Z,15.17
2023-01-13T12:29:15.323Z,16.62
2023-01-13T12:31:47.303Z,15.70
2023-01-13T12:34:40.181Z,16.10
2023-01-13T12:37:15.715Z,16.10
2023-01-13T12:39:52.561Z,17.57
2023-01-13T12:42:42.825Z,18.70
2023-01-13T12:45:26.929Z,16.73
2023-01-13T12:47:56.566Z,17.33
2023-01-13T12:50:55.460Z,15.63
2023-01-13T12:53:45.470Z,16.40
2023-01-13T12:56:37.678Z,14.90
2023-01-13T12:59:24.647Z,14.30
2023-01-13T13:02:11.932Z,15.15
2023-01-13T13:04:44.965Z,16.53
2023-01-13T13:07:15.599Z,15.93
2023-01-13T13:09:47.989Z,15.60
2023-01-13T13:15:06.211Z,15.90
2023-01-13T13:18:02.957Z,15.72
2023-01-13T13:20:53.704Z,16.55
2023-01-13T13:23:47.800Z,16.23
2023-01-13T13:26:19.632Z,15.50
2023-01-13T13:28:55.191Z,14.68
2023-01-13T13:31:32.216Z,15.15
2023-01-13T13:34:17.099Z,14.53
2023-01-13T13:37:02.154Z,13.45
2023-01-13T13:39:51.861Z,14.30
2023-01-13T13:42:41.165Z,13.87
2023-01-13T13:45:33.018Z,13.85
2023-01-13T13:48:16.583Z,14.70
2023-01-13T13:50:54.603Z,13.93
2023-01-13T13:53:26.065Z,14.20
2023-01-13T13:55:56.638Z,13.83
2023-01-13T13:58:26.391Z,13.87
2023-01-13T14:00:56.629Z,14.67
2023-01-13T14:03:28.720Z,13.30
2023-01-13T14:08:27.029Z,13.33
2023-01-13T14:10:56.259Z,14.35
2023-01-13T14:13:26.557Z,13.83
2023-01-13T14:15:57.436Z,14.33
2023-01-13T14:18:27.451Z,13.60
2023-01-13T14:20:58.637Z,15.17
2023-01-13T14:23:28.486Z,13.97
2023-01-13T14:26:02.399Z,15.13
2023-01-13T14:28:34.118Z,15.77
2023-01-13T14:31:04.406Z,16.62
2023-01-13T14:33:38.696Z,14.80
2023-01-13T14:36:13.139Z,15.47
2023-01-13T14:38:43.039Z,17.03
2023-01-13T14:41:16.001Z,15.30
2023-01-13T14:43:46.472Z,16.80
2023-01-13T14:46:17.428Z,16.73
2023-01-13T14:48:47.479Z,14.30
2023-01-13T14:51:22.493Z,14.70
2023-01-13T14:53:51.709Z,15.37
2023-01-13T14:56:42.009Z,15.38
2023-01-13T14:59:29.110Z,14.10
2023-01-13T15:01:59.535Z,14.67
2023-01-13T15:04:31.907Z,15.00
2023-01-13T15:07:01.299Z,15.60
2023-01-13T15:09:34.889Z,16.10
2023-01-13T15:12:15.504Z,16.30
2023-01-13T15:14:48.902Z,16.60
2023-01-13T15:17:18.348Z,16.47
2023-01-13T15:19:47.531Z,15.90
2023-01-13T15:22:16.748Z,16.30
2023-01-13T15:24:47.375Z,16.10
2023-01-13T15:27:19.355Z,15.97
2023-01-13T15:29:48.439Z,15.60
2023-01-13T15:32:18.880Z,17.73
2023-01-13T15:34:48.604Z,16.17
2023-01-13T15:37:18.960Z,16.63
2023-01-13T15:39:48.990Z,16.60
2023-01-13T15:42:36.568Z,17.60
2023-01-13T15:45:24.667Z,17.27
2023-01-13T15:47:55.001Z,18.23
2023-01-13T15:50:24.310Z,18.90
2023-01-13T15:52:54.242Z,20.30
2023-01-13T15:55:23.408Z,20.63
2023-01-13T15:57:52.593Z,21.00
2023-01-13T16:00:22.257Z,20.03
2023-01-13T16:02:51.751Z,21.40
2023-01-13T16:05:20.977Z,24.45
2023-01-13T16:07:50.926Z,20.90
2023-01-13T16:10:21.051Z,18.50
2023-01-13T16:12:50.338Z,18.83
2023-01-13T16:15:21.718Z,18.13
2023-01-13T16:17:53.284Z,18.42
2023-01-13T16:20:22.697Z,18.63
2023-01-13T16:22:52.095Z,18.10
2023-01-13T16:25:22.423Z,20.33
2023-01-13T16:27:53.116Z,22.02
2023-01-13T16:30:26.316Z,22.70
2023-01-13T16:32:55.629Z,20.65
2023-01-13T16:35:25.126Z,20.32
2023-01-13T16:37:57.737Z,20.30
2023-01-13T16:40:31.051Z,18.95
2023-01-13T16:43:02.651Z,20.77
2023-01-13T16:45:32.036Z,17.95
2023-01-13T16:48:01.302Z,17.47
2023-01-13T16:50:33.590Z,16.43
2023-01-13T16:53:03.041Z,17.27
2023-01-13T16:55:32.309Z,18.53
2023-01-13T16:58:01.643Z,19.43
2023-01-13T17:00:30.941Z,19.07
2023-01-13T17:03:02.135Z,19.30
2023-01-13T17:05:31.331Z,19.90
2023-01-13T17:08:00.650Z,18.63
2023-01-13T17:10:29.810Z,19.17
2023-01-13T17:13:07.304Z,18.65
2023-01-13T17:15:45.221Z,19.85
2023-01-13T17:18:15.078Z,21.20
2023-01-13T17:20:44.878Z,21.37
2023-01-13T17:23:14.375Z,20.23
2023-01-13T17:25:43.864Z,23.70
2023-01-13T17:28:13.990Z,22.33
2023-01-13T17:30:44.348Z,18.77
2023-01-13T17:33:17.196Z,18.42
2023-01-13T17:35:48.493Z,16.80
2023-01-13T17:38:18.009Z,20.45
2023-01-13T17:40:49.826Z,17.97
2023-01-13T17:45:49.180Z,14.90
2023-01-13T17:48:18.871Z,17.03
2023-01-13T17:50:48.918Z,16.57
2023-01-13T17:53:18.753Z,16.90
2023-01-13T17:55:51.376Z,18.60
2023-01-13T17:58:20.814Z,16.00
2023-01-13T18:00:50.395Z,15.47
2023-01-13T18:03:20.178Z,15.93
2023-01-13T18:05:49.406Z,15.43
2023-01-13T18:08:19.000Z,15.63
2023-01-13T18:10:51.724Z,16.70
2023-01-13T18:13:21.251Z,15.95
2023-01-13T18:15:58.870Z,15.30
2023-01-13T18:18:28.828Z,17.33
2023-01-13T18:21:16.429Z,14.45
2023-01-13T18:24:09.705Z,15.40
2023-01-13T18:26:57.210Z,15.60
2023-01-13T18:29:26.684Z,16.75
2023-01-13T18:31:55.898Z,14.43
2023-01-13T18:34:24.988Z,14.30
2023-01-13T18:36:54.599Z,14.13
2023-01-13T18:39:23.796Z,15.83
2023-01-13T18:42:11.150Z,17.13
2023-01-13T18:44:40.516Z,18.17
2023-01-13T18:47:09.580Z,16.93
2023-01-13T18:49:38.932Z,17.50
2023-01-13T18:52:08.083Z,18.27
2023-01-13T18:54:37.213Z,17.75
2023-01-13T18:57:06.841Z,20.60
2023-01-13T18:59:36.033Z,20.25
2023-01-13T19:02:08.798Z,18.90
2023-01-13T19:04:38.087Z,19.70
2023-01-13T19:07:08.232Z,18.47
2023-01-13T19:09:37.597Z,19.35
2023-01-13T19:12:09.635Z,21.00
2023-01-13T19:14:41.461Z,20.77
2023-01-13T19:17:13.920Z,39.55
2023-01-13T19:19:43.958Z,52.73
2023-01-13T19:22:15.328Z,37.93
2023-01-13T19:24:44.459Z,25.40
2023-01-13T19:27:14.746Z,21.35
2023-01-13T19:29:52.241Z,20.70
2023-01-13T19:32:22.418Z,19.70
2023-01-13T19:34:52.643Z,17.75
2023-01-13T19:37:29.489Z,18.50
2023-01-13T19:40:04.153Z,18.00
2023-01-13T19:42:52.389Z,19.50
2023-01-13T19:45:27.839Z,19.67
2023-01-13T19:47:57.693Z,20.80
2023-01-13T19:50:27.054Z,22.10
2023-01-13T19:52:56.507Z,24.27
2023-01-13T19:55:25.831Z,24.40
2023-01-13T19:57:55.763Z,23.80
2023-01-13T20:00:25.421Z,22.77
2023-01-13T20:02:56.181Z,23.17
2023-01-13T20:05:25.654Z,24.83
2023-01-13T20:07:54.874Z,25.47
2023-01-13T20:10:24.710Z,26.70
2023-01-13T20:12:53.999Z,27.40
2023-01-13T20:15:24.001Z,27.05
2023-01-13T20:17:53.248Z,25.70
2023-01-13T20:20:25.119Z,23.87
2023-01-13T20:25:23.009Z,19.15
2023-01-13T20:27:52.668Z,18.60
2023-01-13T20:30:21.769Z,21.50
2023-01-13T20:32:51.581Z,18.90
2023-01-13T20:35:21.054Z,20.63
2023-01-13T20:37:50.486Z,17.90
2023-01-13T20:40:19.858Z,18.77
2023-01-13T20:42:48.992Z,18.90
2023-01-13T20:45:20.213Z,16.60
2023-01-13T20:47:49.565Z,18.50
2023-01-13T20:50:18.922Z,16.75
2023-01-13T20:52:48.290Z,15.90
2023-01-13T20:55:17.611Z,17.10
2023-01-13T20:57:49.487Z,18.33
2023-01-13T21:00:19.746Z,18.62
2023-01-13T21:02:49.536Z,18.85
2023-01-13T21:05:19.411Z,18.57
2023-01-13T21:07:48.714Z,20.10
2023-01-13T21:10:18.070Z,18.05
2023-01-13T21:13:05.303Z,19.30
2023-01-13T21:15:35.309Z,20.00
2023-01-13T21:18:23.311Z,19.80
2023-01-13T21:21:10.787Z,19.70
2023-01-13T21:23:40.426Z,19.27
2023-01-13T21:26:09.887Z,20.00
2023-01-13T21:28:39.051Z,19.63
2023-01-13T21:31:09.564Z,19.85
2023-01-13T21:33:39.245Z,18.40
2023-01-13T21:36:09.110Z,18.90
2023-01-13T21:38:38.386Z,20.03
2023-01-13T21:41:08.378Z,19.65
2023-01-13T21:43:55.625Z,19.00
2023-01-13T21:46:43.016Z,19.70
2023-01-13T21:49:14.723Z,19.65
2023-01-13T21:51:44.995Z,19.20
2023-01-13T21:54:14.138Z,20.67
2023-01-13T21:56:43.281Z,19.63
2023-01-13T21:59:12.493Z,19.27
2023-01-13T22:02:02.880Z,20.53
2023-01-13T22:04:32.467Z,21.10
2023-01-13T22:07:04.044Z,20.63
2023-01-13T22:09:33.358Z,20.12
2023-01-13T22:12:02.571Z,20.03
2023-01-13T22:14:31.788Z,19.97
2023-01-13T22:17:02.857Z,18.60
2023-01-13T22:19:32.497Z,19.67
2023-01-13T22:22:03.271Z,19.05
2023-01-13T22:24:32.535Z,19.55
2023-01-13T22:27:01.649Z,20.93
2023-01-13T22:29:31.501Z,19.70
2023-01-13T22:32:01.307Z,19.80
2023-01-13T22:34:33.154Z,19.40
2023-01-13T22:37:03.809Z,19.32
2023-01-13T22:39:34.633Z,18.90
2023-01-13T22:42:04.894Z,19.80
2023-01-13T22:44:33.999Z,19.80
2023-01-13T22:47:03.184Z,19.50
2023-01-13T22:49:32.551Z,18.90
2023-01-13T22:52:02.073Z,18.75
2023-01-13T22:54:31.314Z,19.40
2023-01-13T22:57:00.558Z,19.15
2023-01-13T22:59:31.294Z,19.80
2023-01-13T23:02:02.118Z,20.60
2023-01-13T23:04:31.456Z,19.55
2023-01-13T23:07:00.876Z,21.45
2023-01-13T23:09:30.055Z,19.75
2023-01-13T23:12:00.116Z,21.05
2023-01-13T23:14:30.907Z,21.90
2023-01-13T23:17:00.854Z,20.80
2023-01-13T23:19:31.844Z,19.90
2023-01-13T23:22:01.383Z,20.00
2023-01-13T23:24:30.514Z,20.83
2023-01-13T23:27:00.444Z,19.50
2023-01-13T23:29:29.740Z,19.50
2023-01-13T23:31:58.893Z,18.75
2023-01-13T23:34:28.203Z,18.20
2023-01-13T23:36:57.387Z,20.15
2023-01-13T23:39:27.073Z,19.90
2023-01-13T23:41:56.243Z,19.90
2023-01-13T23:44:25.695Z,20.05
2023-01-13T23:46:55.060Z,20.65
2023-01-13T23:49:24.410Z,20.60
2023-01-13T23:51:53.618Z,20.20
2023-01-13T23:54:22.709Z,20.85
2023-01-13T23:56:52.102Z,21.20
2023-01-13T23:59:21.666Z,21.83
